createdAt,value
2018-05-23T00:00:37.496Z,93.59
2018-05-23T00:03:05.272Z,93.46
2018-05-23T00:05:32.773Z,93.97
2018-05-23T00:08:00.272Z,93.71
2018-05-23T00:10:27.785Z,93.43
2018-05-23T00:12:55.288Z,93.59
2018-05-23T00:15:22.813Z,93.05
2018-05-23T00:17:50.301Z,93.02
2018-05-23T00:20:18.250Z,92.68
2018-05-23T00:22:45.749Z,93.46
2018-05-23T00:25:13.241Z,93.32
2018-05-23T00:27:40.859Z,93.37
2018-05-23T00:30:08.353Z,93.21
2018-05-23T00:32:35.872Z,93.14
2018-05-23T00:35:03.364Z,93.10
2018-05-23T00:37:30.889Z,92.23
2018-05-23T00:39:58.380Z,92.33
2018-05-23T00:42:26.244Z,92.69
2018-05-23T00:44:53.761Z,92.41
2018-05-23T00:47:21.269Z,88.91
2018-05-23T00:49:48.780Z,89.40
2018-05-23T00:52:16.378Z,90.27
2018-05-23T00:54:55.740Z,91.61
2018-05-23T00:57:23.237Z,92.36
2018-05-23T00:59:50.852Z,92.49
2018-05-23T01:02:18.337Z,92.19
2018-05-23T01:04:45.835Z,90.38
2018-05-23T01:07:13.363Z,91.07
2018-05-23T01:09:40.878Z,89.68
2018-05-23T01:12:08.404Z,90.19
2018-05-23T01:14:35.889Z,88.76
2018-05-23T01:17:03.878Z,87.57
2018-05-23T01:19:31.381Z,89.23
2018-05-23T01:21:58.857Z,89.69
2018-05-23T01:24:26.414Z,89.92
2018-05-23T01:26:53.913Z,90.15
2018-05-23T01:29:21.425Z,90.85
2018-05-23T01:31:48.914Z,90.41
2018-05-23T01:34:16.787Z,92.38
2018-05-23T01:36:44.272Z,92.11
2018-05-23T01:39:11.778Z,91.68
2018-05-23T01:41:39.290Z,92.08
2018-05-23T01:44:06.782Z,92.43
2018-05-23T01:46:34.324Z,91.92
2018-05-23T01:49:13.688Z,91.84
2018-05-23T01:51:41.259Z,91.92
2018-05-23T01:54:08.746Z,92.69
2018-05-23T01:56:36.399Z,92.73
2018-05-23T01:59:03.889Z,92.79
2018-05-23T02:01:31.484Z,92.35
2018-05-23T02:03:59.002Z,92.34
2018-05-23T02:06:26.493Z,91.64
2018-05-23T02:08:54.005Z,91.79
2018-05-23T02:11:21.497Z,91.94
2018-05-23T02:13:49.285Z,91.16
2018-05-23T02:16:16.776Z,91.34
2018-05-23T02:18:44.268Z,91.87
2018-05-23T02:21:11.789Z,92.41
2018-05-23T02:23:39.360Z,92.48
2018-05-23T02:26:06.813Z,93.07
2018-05-23T02:28:34.317Z,93.26
2018-05-23T02:31:01.854Z,92.65
2018-05-23T02:33:29.378Z,93.26
2018-05-23T02:35:56.882Z,92.38
2018-05-23T02:38:24.398Z,92.65
2018-05-23T02:40:51.893Z,92.84
2018-05-23T02:43:19.409Z,93.20
2018-05-23T02:45:46.917Z,92.75
2018-05-23T02:48:14.804Z,92.66
2018-05-23T02:50:42.297Z,93.37
2018-05-23T02:53:09.773Z,93.22
2018-05-23T02:55:37.310Z,92.07
2018-05-23T02:58:04.805Z,91.78
2018-05-23T03:00:32.313Z,91.12
2018-05-23T03:02:59.853Z,92.03
2018-05-23T03:05:27.504Z,92.29
2018-05-23T03:07:55.004Z,92.28
2018-05-23T03:10:22.501Z,92.56
2018-05-23T03:12:50.020Z,92.53
2018-05-23T03:15:17.505Z,92.62
2018-05-23T03:17:45.014Z,93.02
2018-05-23T03:20:12.529Z,93.08
2018-05-23T03:22:40.013Z,93.57
2018-05-23T03:25:07.537Z,93.86
2018-05-23T03:27:35.032Z,94.43
2018-05-23T03:30:02.567Z,94.78
2018-05-23T03:32:30.093Z,94.23
2018-05-23T03:34:57.577Z,93.57
2018-05-23T03:37:25.093Z,94.01
2018-05-23T03:39:52.605Z,94.35
2018-05-23T03:42:20.242Z,94.20
2018-05-23T03:44:47.737Z,94.32
2018-05-23T03:47:15.221Z,93.54
2018-05-23T03:49:42.737Z,93.38
2018-05-23T03:52:10.229Z,93.57
2018-05-23T03:54:37.779Z,93.65
2018-05-23T03:57:05.257Z,93.25
2018-05-23T03:59:44.725Z,92.85
2018-05-23T04:02:24.009Z,93.23
2018-05-23T04:05:04.470Z,93.63
2018-05-23T04:07:37.808Z,93.69
2018-05-23T04:10:06.461Z,93.73
2018-05-23T04:12:33.945Z,93.68
2018-05-23T04:15:01.433Z,93.74
2018-05-23T04:17:28.948Z,93.28
2018-05-23T04:19:56.425Z,93.37
2018-05-23T04:22:24.276Z,93.83
2018-05-23T04:24:51.780Z,93.57
2018-05-23T04:27:19.277Z,93.55
2018-05-23T04:29:46.797Z,95.28
2018-05-23T04:32:14.361Z,96.67
2018-05-23T04:34:42.077Z,96.16
2018-05-23T04:37:09.569Z,95.44
2018-05-23T04:39:37.052Z,94.75
2018-05-23T04:42:04.572Z,94.61
2018-05-23T04:44:32.065Z,95.11
2018-05-23T04:46:59.750Z,95.37
2018-05-23T04:49:27.237Z,95.31
2018-05-23T04:51:54.739Z,95.25
2018-05-23T04:54:22.269Z,94.65
2018-05-23T04:56:49.769Z,95.06
2018-05-23T04:59:17.273Z,94.58
2018-05-23T05:01:44.760Z,94.18
2018-05-23T05:04:12.432Z,94.01
2018-05-23T05:06:39.913Z,93.36
2018-05-23T05:09:07.444Z,92.95
2018-05-23T05:11:34.948Z,92.92
2018-05-23T05:14:02.443Z,92.77
2018-05-23T05:16:29.968Z,93.75
2018-05-23T05:18:57.452Z,93.71
2018-05-23T05:21:25.001Z,93.54
2018-05-23T05:23:52.499Z,91.44
2018-05-23T05:26:20.009Z,90.04
2018-05-23T05:28:47.546Z,90.45
2018-05-23T05:31:15.037Z,90.30
2018-05-23T05:33:42.541Z,90.60
2018-05-23T05:36:10.031Z,88.68
2018-05-23T05:38:37.557Z,87.43
2018-05-23T05:41:05.084Z,89.52
2018-05-23T05:43:32.577Z,88.66
2018-05-23T05:46:00.090Z,90.44
2018-05-23T05:48:27.569Z,88.10
2018-05-23T05:50:55.090Z,87.73
2018-05-23T05:53:22.568Z,89.59
2018-05-23T05:55:50.230Z,89.41
2018-05-23T05:58:17.729Z,89.53
2018-05-23T06:00:45.205Z,89.85
2018-05-23T06:03:12.729Z,90.07
2018-05-23T06:05:40.213Z,90.28
2018-05-23T06:08:07.721Z,88.01
2018-05-23T06:10:35.221Z,86.46
2018-05-23T06:13:03.162Z,88.66
2018-05-23T06:15:30.818Z,88.64
2018-05-23T06:17:58.309Z,87.84
2018-05-23T06:20:25.821Z,88.09
2018-05-23T06:22:53.303Z,89.48
2018-05-23T06:25:20.835Z,88.21
2018-05-23T06:27:48.321Z,90.18
2018-05-23T06:30:16.276Z,90.79
2018-05-23T06:32:43.769Z,91.38
2018-05-23T06:35:11.276Z,92.37
2018-05-23T06:37:38.807Z,90.33
2018-05-23T06:40:06.300Z,90.63
2018-05-23T06:42:33.805Z,91.45
2018-05-23T06:45:01.289Z,91.12
2018-05-23T06:47:28.822Z,90.70
2018-05-23T06:49:56.330Z,89.87
2018-05-23T06:52:23.829Z,91.18
2018-05-23T06:54:51.382Z,91.14
2018-05-23T06:57:18.886Z,90.54
2018-05-23T06:59:46.413Z,90.51
2018-05-23T07:02:13.905Z,90.18
2018-05-23T07:04:41.856Z,89.17
2018-05-23T07:07:09.341Z,88.53
2018-05-23T07:09:36.832Z,88.74
2018-05-23T07:12:04.349Z,89.35
2018-05-23T07:14:31.860Z,89.59
2018-05-23T07:16:59.454Z,89.32
2018-05-23T07:19:26.885Z,88.63
2018-05-23T07:21:54.628Z,89.01
2018-05-23T07:24:22.129Z,89.36
2018-05-23T07:26:49.625Z,89.63
2018-05-23T07:29:17.153Z,88.36
2018-05-23T07:31:44.668Z,85.40
2018-05-23T07:34:12.201Z,87.72
2018-05-23T07:36:39.697Z,88.61
2018-05-23T07:39:07.225Z,88.49
2018-05-23T07:41:34.749Z,88.08
2018-05-23T07:44:02.237Z,87.77
2018-05-23T07:46:29.748Z,88.12
2018-05-23T07:48:57.245Z,88.87
2018-05-23T07:51:24.761Z,88.29
2018-05-23T07:53:52.277Z,88.22
2018-05-23T07:56:20.048Z,87.62
2018-05-23T07:58:47.541Z,87.25
2018-05-23T08:01:15.036Z,87.92
2018-05-23T08:03:42.556Z,87.34
2018-05-23T08:06:10.062Z,89.10
2018-05-23T08:08:37.577Z,88.13
2018-05-23T08:11:05.077Z,87.74
2018-05-23T08:13:32.613Z,86.56
2018-05-23T08:30:14.582Z,87.00
2018-05-23T08:32:42.064Z,86.02
2018-05-23T08:35:09.552Z,84.83
2018-05-23T08:37:37.029Z,83.70
2018-05-23T08:40:04.489Z,83.29
2018-05-23T08:42:31.963Z,83.12
2018-05-23T08:44:59.424Z,85.15
2018-05-23T08:47:27.154Z,84.11
2018-05-23T08:49:54.623Z,83.75
2018-05-23T08:52:22.090Z,82.58
2018-05-23T08:54:49.610Z,82.13
2018-05-23T08:57:17.084Z,82.17
2018-05-23T08:59:44.581Z,82.34
2018-05-23T09:02:12.041Z,82.53
2018-05-23T09:04:39.663Z,82.84
2018-05-23T09:07:07.137Z,81.26
2018-05-23T09:09:34.613Z,81.23
2018-05-23T09:12:02.103Z,77.71
2018-05-23T09:14:29.598Z,78.23
2018-05-23T09:16:57.094Z,78.50
2018-05-23T09:19:24.575Z,80.22
2018-05-23T09:21:52.540Z,75.58
2018-05-23T09:24:19.996Z,76.42
2018-05-23T09:26:47.444Z,72.06
2018-05-23T09:29:14.907Z,71.05
2018-05-23T09:31:42.360Z,70.59
2018-05-23T09:34:09.832Z,70.51
2018-05-23T09:36:37.287Z,69.76
2018-05-23T09:39:05.558Z,69.85
2018-05-23T09:41:32.999Z,70.75
2018-05-23T09:44:00.457Z,72.05
2018-05-23T09:46:27.935Z,74.48
2018-05-23T09:48:55.388Z,73.86
2018-05-23T09:51:22.853Z,72.97
2018-05-23T09:53:50.299Z,71.80
2018-05-23T09:56:18.050Z,71.54
2018-05-23T09:58:45.513Z,70.60
2018-05-23T10:01:12.959Z,70.69
2018-05-23T10:03:40.479Z,72.38
2018-05-23T10:06:07.919Z,71.95
2018-05-23T10:08:35.403Z,71.39
2018-05-23T10:11:02.866Z,73.52
2018-05-23T10:13:30.760Z,70.54
2018-05-23T10:15:58.203Z,69.57
2018-05-23T10:18:25.651Z,68.69
2018-05-23T10:20:53.140Z,69.68
2018-05-23T10:23:20.596Z,70.48
2018-05-23T10:25:48.075Z,70.92
2018-05-23T10:28:15.524Z,70.62
2018-05-23T10:30:43.048Z,68.72
2018-05-23T10:33:10.500Z,69.45
2018-05-23T10:35:37.958Z,70.58
2018-05-23T10:38:05.445Z,70.91
2018-05-23T10:40:32.891Z,69.33
2018-05-23T10:43:00.356Z,70.37
2018-05-23T10:45:27.809Z,69.28
2018-05-23T10:47:55.279Z,68.55
2018-05-23T10:50:22.723Z,66.86
2018-05-23T10:52:50.191Z,67.89
2018-05-23T10:55:17.640Z,66.92
2018-05-23T10:57:45.119Z,67.27
2018-05-23T11:00:12.600Z,64.85
2018-05-23T11:02:40.031Z,66.33
2018-05-23T11:05:07.499Z,66.36
2018-05-23T11:07:34.946Z,66.84
2018-05-23T11:10:02.417Z,67.75
2018-05-23T11:12:29.867Z,67.15
2018-05-23T11:14:57.399Z,67.65
2018-05-23T11:17:24.828Z,68.86
2018-05-23T11:19:52.279Z,66.96
2018-05-23T11:22:19.767Z,66.96
2018-05-23T11:24:47.220Z,66.64
2018-05-23T11:27:14.695Z,66.60
2018-05-23T11:29:42.202Z,67.19
2018-05-23T11:32:09.890Z,66.53
2018-05-23T11:34:37.349Z,67.23
2018-05-23T11:37:04.821Z,66.74
2018-05-23T11:39:32.303Z,63.87
2018-05-23T11:41:59.749Z,65.23
2018-05-23T11:44:27.217Z,65.92
2018-05-23T11:46:54.680Z,65.68
2018-05-23T11:49:22.496Z,65.53
2018-05-23T11:51:49.949Z,64.21
2018-05-23T11:54:17.404Z,64.63
2018-05-23T11:56:44.875Z,64.93
2018-05-23T11:59:12.339Z,63.98
2018-05-23T12:01:39.824Z,64.09
2018-05-23T12:04:07.270Z,64.03
2018-05-23T12:06:34.760Z,63.77
2018-05-23T12:09:02.220Z,65.09
2018-05-23T12:11:29.683Z,65.45
2018-05-23T12:13:57.155Z,65.25
2018-05-23T12:16:24.621Z,65.28
2018-05-23T12:18:52.096Z,64.24
2018-05-23T12:21:19.543Z,64.09
2018-05-23T12:23:47.283Z,62.98
2018-05-23T12:26:14.723Z,63.73
2018-05-23T12:28:42.196Z,63.34
2018-05-23T12:31:09.667Z,64.04
2018-05-23T12:33:37.116Z,64.22
2018-05-23T12:36:04.588Z,64.37
2018-05-23T12:38:32.167Z,64.87
2018-05-23T12:40:59.867Z,63.78
2018-05-23T12:43:27.344Z,64.85
2018-05-23T12:45:54.788Z,62.64
2018-05-23T12:48:22.308Z,62.65
2018-05-23T12:50:49.747Z,62.18
2018-05-23T12:53:17.219Z,63.70
2018-05-23T12:55:44.667Z,64.17
2018-05-23T12:58:12.358Z,63.93
2018-05-23T13:00:39.805Z,64.36
2018-05-23T13:03:07.260Z,64.09
2018-05-23T13:05:34.728Z,64.64
2018-05-23T13:08:02.186Z,62.76
2018-05-23T13:10:29.689Z,63.06
2018-05-23T13:12:57.140Z,64.00
2018-05-23T13:15:25.043Z,64.42
2018-05-23T13:17:52.507Z,64.54
2018-05-23T13:20:19.962Z,62.65
2018-05-23T13:22:47.440Z,63.64
2018-05-23T13:25:14.907Z,60.45
2018-05-23T13:27:42.383Z,60.91
2018-05-23T13:30:09.840Z,58.68
2018-05-23T13:32:37.332Z,59.67
2018-05-23T13:35:04.780Z,58.62
2018-05-23T13:37:32.248Z,56.87
2018-05-23T13:39:59.715Z,57.74
2018-05-23T13:42:27.167Z,56.80
2018-05-23T13:44:54.666Z,57.94
2018-05-23T13:47:22.108Z,55.90
2018-05-23T13:49:50.168Z,56.52
2018-05-23T13:52:17.608Z,56.49
2018-05-23T13:54:45.092Z,57.21
2018-05-23T13:57:12.571Z,57.31
2018-05-23T13:59:40.024Z,57.27
2018-05-23T14:02:07.495Z,56.48
2018-05-23T14:04:34.940Z,56.39
2018-05-23T14:07:02.444Z,56.66
2018-05-23T14:09:29.895Z,58.04
2018-05-23T14:11:57.347Z,57.37
2018-05-23T14:14:24.832Z,56.99
2018-05-23T14:16:52.275Z,56.48
2018-05-23T14:19:19.788Z,55.56
2018-05-23T14:21:47.212Z,56.53
2018-05-23T14:24:14.705Z,56.37
2018-05-23T14:26:42.184Z,56.04
2018-05-23T14:29:09.636Z,55.54
2018-05-23T14:31:37.132Z,54.43
2018-05-23T14:34:04.605Z,55.11
2018-05-23T14:36:32.071Z,55.35
2018-05-23T14:38:59.548Z,55.58
2018-05-23T14:41:27.012Z,55.04
2018-05-23T14:43:54.476Z,54.21
2018-05-23T14:46:21.920Z,55.47
2018-05-23T14:48:49.715Z,53.55
2018-05-23T14:51:17.183Z,51.65
2018-05-23T14:53:44.632Z,57.09
2018-05-23T14:56:12.144Z,62.42
2018-05-23T14:58:39.568Z,62.73
2018-05-23T15:01:07.494Z,64.40
2018-05-23T15:03:34.944Z,67.59
2018-05-23T15:06:02.421Z,71.88
2018-05-23T15:08:29.946Z,70.23
2018-05-23T15:10:57.364Z,71.50
2018-05-23T15:13:25.137Z,71.10
2018-05-23T15:15:52.588Z,71.25
2018-05-23T15:18:20.043Z,70.41
2018-05-23T15:20:47.519Z,70.00
2018-05-23T15:23:14.972Z,70.13
2018-05-23T15:25:42.587Z,69.19
2018-05-23T15:28:10.032Z,69.15
2018-05-23T15:30:37.505Z,69.82
2018-05-23T15:33:04.976Z,69.64
2018-05-23T15:35:32.427Z,69.90
2018-05-23T15:37:59.924Z,71.29
2018-05-23T15:40:27.381Z,73.08
2018-05-23T15:42:54.843Z,75.66
2018-05-23T15:45:22.336Z,75.74
2018-05-23T15:47:49.779Z,75.41
2018-05-23T15:50:17.287Z,75.88
2018-05-23T15:52:44.765Z,74.96
2018-05-23T15:55:12.210Z,73.51
2018-05-23T15:57:39.699Z,75.91
2018-05-23T16:00:07.160Z,74.54
2018-05-23T16:02:34.627Z,75.91
2018-05-23T16:05:02.080Z,76.53
2018-05-23T16:07:29.597Z,77.49
2018-05-23T16:09:57.056Z,76.41
2018-05-23T16:12:24.514Z,74.88
2018-05-23T16:14:52.047Z,76.78
2018-05-23T16:17:19.451Z,75.25
2018-05-23T16:19:46.954Z,72.91
2018-05-23T16:22:14.403Z,75.23
2018-05-23T16:24:42.196Z,74.07
2018-05-23T16:27:09.652Z,78.80
2018-05-23T16:29:37.100Z,78.79
2018-05-23T16:32:04.572Z,79.35
2018-05-23T16:34:32.044Z,78.08
2018-05-23T16:36:59.515Z,78.08
2018-05-23T16:39:26.984Z,77.61
2018-05-23T16:41:54.628Z,77.89
2018-05-23T16:44:22.138Z,77.30
2018-05-23T16:46:49.559Z,80.68
2018-05-23T16:49:17.028Z,79.56
2018-05-23T16:51:44.481Z,79.99
2018-05-23T16:54:12.000Z,81.57
2018-05-23T16:56:39.460Z,82.96
2018-05-23T16:59:06.947Z,82.35
2018-05-23T17:01:34.400Z,83.38
2018-05-23T17:04:01.853Z,85.56
2018-05-23T17:06:29.429Z,84.15
2018-05-23T17:08:56.800Z,84.72
2018-05-23T17:11:24.281Z,84.58
2018-05-23T17:13:51.743Z,83.72
2018-05-23T17:16:19.355Z,86.07
2018-05-23T17:18:46.894Z,81.71
2018-05-23T17:21:14.330Z,85.54
2018-05-23T17:23:41.800Z,83.96
2018-05-23T17:26:09.248Z,80.67
2018-05-23T17:28:36.765Z,81.67
2018-05-23T17:31:04.215Z,81.03
2018-05-23T17:33:31.959Z,83.34
2018-05-23T17:35:59.323Z,85.40
2018-05-23T17:38:26.776Z,83.14
2018-05-23T17:40:54.255Z,83.50
2018-05-23T17:43:21.713Z,82.87
2018-05-23T17:45:49.202Z,84.19
2018-05-23T17:48:16.679Z,84.35
2018-05-23T17:50:44.273Z,85.04
2018-05-23T17:53:11.742Z,86.35
2018-05-23T17:55:39.196Z,84.97
2018-05-23T17:58:06.664Z,85.83
2018-05-23T18:00:34.131Z,85.90
2018-05-23T18:03:01.607Z,85.99
2018-05-23T18:05:29.065Z,85.74
2018-05-23T18:07:56.571Z,87.03
2018-05-23T18:10:24.032Z,88.36
2018-05-23T18:12:51.508Z,86.39
2018-05-23T18:15:18.995Z,84.94
2018-05-23T18:17:46.474Z,83.75
2018-05-23T18:20:14.012Z,85.71
2018-05-23T18:22:41.468Z,85.86
2018-05-23T18:25:08.981Z,87.13
2018-05-23T18:27:36.437Z,86.19
2018-05-23T18:30:04.693Z,88.58
2018-05-23T18:32:32.198Z,85.54
2018-05-23T18:34:59.681Z,86.44
2018-05-23T18:37:27.193Z,86.79
2018-05-23T18:39:54.659Z,87.64
2018-05-23T18:42:23.157Z,88.19
2018-05-23T18:44:50.624Z,87.95
2018-05-23T18:47:18.476Z,87.66
2018-05-23T18:49:46.073Z,87.68
2018-05-23T18:52:13.545Z,87.88
2018-05-23T18:54:41.019Z,89.70
2018-05-23T18:57:08.637Z,90.02
2018-05-23T18:59:36.252Z,90.53
2018-05-23T19:02:03.726Z,90.66
2018-05-23T19:04:31.236Z,89.75
2018-05-23T19:06:58.752Z,89.00
2018-05-23T19:09:26.217Z,85.94
2018-05-23T19:11:53.729Z,88.28
2018-05-23T19:14:21.189Z,87.70
2018-05-23T19:16:48.848Z,84.74
2018-05-23T19:19:18.085Z,83.64
2018-05-23T19:21:45.588Z,85.40
2018-05-23T19:24:13.107Z,87.04
2018-05-23T19:26:41.472Z,87.73
2018-05-23T19:29:08.961Z,85.62
2018-05-23T19:31:36.428Z,85.50
2018-05-23T19:34:04.127Z,85.71
2018-05-23T19:36:31.616Z,85.47
2018-05-23T19:38:59.151Z,86.43
2018-05-23T19:41:26.642Z,83.24
2018-05-23T19:43:54.114Z,83.49
2018-05-23T19:46:21.603Z,83.00
2018-05-23T19:48:49.084Z,82.84
2018-05-23T19:51:16.819Z,82.11
2018-05-23T19:53:44.289Z,84.18
2018-05-23T19:56:11.826Z,83.14
2018-05-23T19:58:39.321Z,85.04
2018-05-23T20:01:07.769Z,84.90
2018-05-23T20:03:35.300Z,84.75
2018-05-23T20:06:02.764Z,85.70
2018-05-23T20:08:30.260Z,88.24
2018-05-23T20:10:57.720Z,88.87
2018-05-23T20:13:25.188Z,88.79
2018-05-23T20:15:52.676Z,90.66
2018-05-23T20:18:20.162Z,90.36
2018-05-23T20:20:47.697Z,90.27
2018-05-23T20:23:15.139Z,90.67
2018-05-23T20:25:42.814Z,90.30
2018-05-23T20:28:10.276Z,87.71
2018-05-23T20:30:37.735Z,88.40
2018-05-23T20:33:05.995Z,91.14
2018-05-23T20:35:33.455Z,92.60
2018-05-23T20:38:01.005Z,92.34
2018-05-23T20:40:28.467Z,92.62
2018-05-23T20:42:55.960Z,93.15
2018-05-23T20:45:23.460Z,93.02
2018-05-23T20:47:50.925Z,93.00
2018-05-23T20:50:18.560Z,93.58
2018-05-23T20:52:46.031Z,94.04
2018-05-23T20:55:13.503Z,93.69
2018-05-23T20:57:41.000Z,94.87
2018-05-23T21:00:08.464Z,94.65
2018-05-23T21:02:35.975Z,94.77
2018-05-23T21:05:03.483Z,94.38
2018-05-23T21:07:30.928Z,94.92
2018-05-23T21:09:58.408Z,94.27
2018-05-23T21:12:25.867Z,94.93
2018-05-23T21:14:53.541Z,94.63
2018-05-23T21:17:21.006Z,94.48
2018-05-23T21:19:48.472Z,94.17
2018-05-23T21:22:15.970Z,93.91
2018-05-23T21:24:43.436Z,94.41
2018-05-23T21:27:10.945Z,93.99
2018-05-23T21:29:38.403Z,94.00
2018-05-23T21:32:05.865Z,93.79
2018-05-23T21:34:33.425Z,92.26
2018-05-23T21:37:00.837Z,92.47
2018-05-23T21:39:28.449Z,90.04
2018-05-23T21:41:55.960Z,93.41
2018-05-23T21:44:23.415Z,94.22
2018-05-23T21:46:50.899Z,94.29
2018-05-23T21:49:18.356Z,93.65
2018-05-23T21:51:45.940Z,93.65
2018-05-23T21:54:13.412Z,93.33
2018-05-23T21:56:40.903Z,94.83
2018-05-23T21:59:08.359Z,95.49
2018-05-23T22:01:35.816Z,95.15
2018-05-23T22:04:03.300Z,94.43
2018-05-23T22:06:30.756Z,93.88
2018-05-23T22:08:58.248Z,93.42
2018-05-23T22:11:25.708Z,93.82
2018-05-23T22:13:53.199Z,93.80
2018-05-23T22:16:20.656Z,94.02
2018-05-23T22:18:48.136Z,93.89
2018-05-23T22:21:15.625Z,94.83
2018-05-23T22:23:43.088Z,95.07
2018-05-23T22:26:10.568Z,94.20
2018-05-23T22:28:38.048Z,94.27
2018-05-23T22:31:05.558Z,94.04
2018-05-23T22:33:33.029Z,94.26
2018-05-23T22:36:00.562Z,94.47
2018-05-23T22:38:28.032Z,93.77
2018-05-23T22:40:55.492Z,93.79
2018-05-23T22:43:22.971Z,94.29
2018-05-23T22:45:50.431Z,94.78
2018-05-23T22:48:18.107Z,94.35
2018-05-23T22:50:45.556Z,94.21
2018-05-23T22:53:13.031Z,94.50
2018-05-23T22:55:40.509Z,94.56
2018-05-23T22:58:07.969Z,94.07
2018-05-23T23:00:35.476Z,94.26
2018-05-23T23:03:02.932Z,93.94
2018-05-23T23:05:30.630Z,93.83
2018-05-23T23:07:58.107Z,93.55
2018-05-23T23:10:25.579Z,93.67
2018-05-23T23:12:53.055Z,92.89
2018-05-23T23:15:20.508Z,92.55
2018-05-23T23:17:47.992Z,93.01
2018-05-23T23:20:15.447Z,93.51
2018-05-23T23:22:43.303Z,93.69
2018-05-23T23:25:10.759Z,93.53
2018-05-23T23:27:38.225Z,94.09
2018-05-23T23:30:05.704Z,94.36
2018-05-23T23:32:33.155Z,94.18
2018-05-23T23:35:00.693Z,94.17
2018-05-23T23:37:28.163Z,94.68
2018-05-23T23:39:55.651Z,94.69
2018-05-23T23:42:23.111Z,95.37
2018-05-23T23:44:50.587Z,94.90
2018-05-23T23:47:18.067Z,94.32
2018-05-23T23:49:45.527Z,94.78
2018-05-23T23:52:13.048Z,93.81
2018-05-23T23:54:40.603Z,92.80
2018-05-23T23:57:08.171Z,92.66
2018-05-23T23:59:35.632Z,91.42
